Thunderstorms From: 25-05-2018 15:00 Until: 26-05-2018 15:00 warning for: Thunderstorms Level: Yellow info button

Although rather usual in this region, locally or potentially dangerous phenomena are expected. (such as local winds, summer thunderstorms, rising streams or high waves) Be aware and pay attention to the latest weather updates, especially if you carry out activities exposed to weather or close to a stream or shoreline. 


Meteo18 Weather Cam more information Meteo18 Weather Cam


warning for Thunderstorms more information blitzortung!


Rain radar more information rain snow radar


Visit our other weather sites:

Template documentation
and downloads

And another site



Weather Underground History page Text

Daily Summary for June 14, 2016 Units:  Metric    English   Both
« Previous Day
Next Day »
Daily Weekly Monthly Yearly Custom
  High: Low: Average:
Temperature: -17.8 °C -11.4 °C -9.6 °C
Dew Point: -17.8 °C -11.9 °C -10.7 °C
Humidity: Humidity % 65 % 89 %
Wind Speed: 0 km/h 0 km/h 4.2 km/h
Wind Gust: 0 km/h - -
Wind:- - WSW
Pressure: 0 hPa 33900.6 hPa -
Precipitation: 510.54 mm    
Historical Graphs
 
 
Tabular Data for June 14, 2016
Time Temperature Dew Point Pressure Wind Wind Speed Wind Gust Humidity Rainfall Rate (Hourly)
-17.8 °C -17.8 °C 0 hPa Calm     Humidity % 0 mm
00:02 -9.6 °C -9.9 °C 34005.6 hPa Calm     96 % 0 mm
00:12 -9.6 °C -9.9 °C 34005.6 hPa Calm     96 % 25.4 mm
00:17 -9.6 °C -9.9 °C 34005.6 hPa Calm     96 % 33.02 mm
00:32 -9.5 °C -9.8 °C 34005.6 hPa Calm     97 % 83.82 mm
00:42 -9.6 °C -9.8 °C 33992.1 hPa Calm   2.6 km/h 97 % 226.06 mm
00:47 -9.5 °C -9.8 °C 33992.1 hPa WSW 5.1 km/h 7.7 km/h 97 % 251.46 mm
00:52 -9.4 °C -9.7 °C 33992.1 hPa WSW 2.6 km/h 10.3 km/h 97 % 276.86 mm
00:57 -9.4 °C -9.7 °C 33992.1 hPa WSW 2.6 km/h 12.9 km/h 97 % 276.86 mm
01:02 -9.4 °C -9.7 °C 33992.1 hPa West 2.6 km/h 12.9 km/h 97 % 284.48 mm
01:12 -9.4 °C -9.7 °C 33992.1 hPa WSW 7.7 km/h 12.9 km/h 97 % 264.16 mm
01:17 -9.4 °C -9.7 °C 33992.1 hPa WSW 2.6 km/h 12.9 km/h 97 % 271.78 mm
01:22 -9.4 °C -9.7 °C 34005.6 hPa SW 5.1 km/h 12.9 km/h 97 % 264.16 mm
01:27 -9.4 °C -9.8 °C 33992.1 hPa SSW 2.6 km/h 12.9 km/h 96 % 231.14 mm
01:32 -9.5 °C -9.8 °C 33992.1 hPa WSW 7.7 km/h 12.9 km/h 96 % 180.34 mm
01:37 -9.5 °C -9.8 °C 33992.1 hPa SW 2.6 km/h 12.9 km/h 96 % 116.84 mm
01:42 -9.5 °C -9.8 °C 33992.1 hPa SW 12.9 km/h 12.9 km/h 96 % 83.82 mm
01:47 -9.5 °C -9.8 °C 33992.1 hPa Calm   18.2 km/h 96 % 58.42 mm
01:52 -9.6 °C -9.9 °C 33992.1 hPa Calm   18.2 km/h 96 % 45.72 mm
01:57 -9.6 °C -9.9 °C 33992.1 hPa West 5.1 km/h 18.2 km/h 96 % 38.1 mm
02:02 -9.6 °C -9.9 °C 33992.1 hPa WSW 10.3 km/h 18.2 km/h 96 % 33.02 mm
02:07 -9.7 °C -10 °C 33992.1 hPa WSW 7.7 km/h 18.2 km/h 96 % 33.02 mm
02:17 -9.8 °C -10.1 °C 33981.9 hPa West 7.7 km/h 20.8 km/h 96 % 20.32 mm
02:22 -9.8 °C -10.1 °C 33981.9 hPa WSW 7.7 km/h 20.8 km/h 96 % 12.7 mm
02:32 -9.8 °C -10.1 °C 33981.9 hPa West 2.6 km/h 20.8 km/h 96 % 12.7 mm
02:37 -9.8 °C -10.1 °C 33981.9 hPa WSW 7.7 km/h 23.3 km/h 96 % 20.32 mm
02:42 -9.8 °C -10.2 °C 33981.9 hPa WSW 5.1 km/h 23.3 km/h 96 % 20.32 mm
02:47 -9.8 °C -10.2 °C 33981.9 hPa WSW 12.9 km/h 23.3 km/h 96 % 12.7 mm
02:52 -9.8 °C -10.2 °C 33971.7 hPa SW 10.3 km/h 18.2 km/h 96 % 12.7 mm
02:57 -9.9 °C -10.2 °C 33971.7 hPa WSW 5.1 km/h 15.6 km/h 97 % 20.32 mm
03:07 -9.9 °C -10.2 °C 33971.7 hPa WSW 7.7 km/h 15.6 km/h 97 % 20.32 mm
03:12 -9.9 °C -10.2 °C 33971.7 hPa WSW 7.7 km/h 12.9 km/h 97 % 20.32 mm
03:17 -9.9 °C -10.2 °C 33971.7 hPa SW 2.6 km/h 18.2 km/h 97 % 20.32 mm
03:22 -9.9 °C -10.2 °C 33971.7 hPa West 2.6 km/h 18.2 km/h 97 % 20.32 mm
03:27 -9.9 °C -10.2 °C 33971.7 hPa WSW 5.1 km/h 18.2 km/h 97 % 12.7 mm
03:32 -9.9 °C -10.2 °C 33971.7 hPa SW 5.1 km/h 12.9 km/h 97 % 12.7 mm
03:42 -9.9 °C -10.2 °C 33958.2 hPa West 5.1 km/h 20.8 km/h 97 % 12.7 mm
03:47 -9.9 °C -10.2 °C 33958.2 hPa WSW 2.6 km/h 20.8 km/h 97 % 12.7 mm
03:52 -10 °C -10.3 °C 33958.2 hPa WSW 2.6 km/h 18.2 km/h 97 % 7.62 mm
03:57 -10 °C -10.3 °C 33958.2 hPa SW 5.1 km/h 15.6 km/h 97 % 7.62 mm
04:02 -10.1 °C -10.3 °C 33958.2 hPa SW 2.6 km/h 20.8 km/h 97 % 12.7 mm
04:07 -10.1 °C -10.3 °C 33958.2 hPa SW 2.6 km/h 20.8 km/h 97 % 12.7 mm
04:12 -10.1 °C -10.3 °C 33958.2 hPa SW 2.6 km/h 20.8 km/h 97 % 12.7 mm
04:17 -10.1 °C -10.3 °C 33958.2 hPa WSW 5.1 km/h 12.9 km/h 97 % 38.1 mm
04:22 -10.1 °C -10.4 °C 33958.2 hPa WSW 5.1 km/h 12.9 km/h 97 % 58.42 mm
04:27 -10.1 °C -10.4 °C 33948 hPa WSW 10.3 km/h 15.6 km/h 97 % 71.12 mm
04:32 -10.1 °C -10.4 °C 33948 hPa SW 12.9 km/h 15.6 km/h 97 % 63.5 mm
04:42 -10.1 °C -10.4 °C 33948 hPa WSW 2.6 km/h 12.9 km/h 97 % 63.5 mm
04:47 -10.1 °C -10.3 °C 33958.2 hPa SW 10.3 km/h 12.9 km/h 97 % 63.5 mm
04:52 -10.1 °C -10.3 °C 33958.2 hPa WSW 5.1 km/h 12.9 km/h 97 % 63.5 mm
04:57 -10.1 °C -10.3 °C 33958.2 hPa WSW 10.3 km/h 12.9 km/h 97 % 58.42 mm
05:02 -10 °C -10.3 °C 33958.2 hPa SW 7.7 km/h 12.9 km/h 97 % 58.42 mm
05:12 -10.1 °C -10.3 °C 33958.2 hPa Calm   18.2 km/h 97 % 71.12 mm
05:17 -10.1 °C -10.4 °C 33971.7 hPa North 5.1 km/h 18.2 km/h 97 % 33.02 mm
05:22 -10.3 °C -10.6 °C 33971.7 hPa WSW 10.3 km/h 18.2 km/h 96 % 33.02 mm
05:32 -10.6 °C -10.9 °C 33981.9 hPa West 2.6 km/h 20.8 km/h 96 % 25.4 mm
05:37 -10.7 °C -11.1 °C 33981.9 hPa Calm   18.2 km/h 95 % 38.1 mm
05:42 -10.8 °C -11.2 °C 33981.9 hPa SW 7.7 km/h 18.2 km/h 95 % 38.1 mm
05:47 -10.9 °C -11.3 °C 33992.1 hPa WSW 5.1 km/h 18.2 km/h 95 % 38.1 mm
05:52 -10.9 °C -11.4 °C 33992.1 hPa Calm   15.6 km/h 95 % 38.1 mm
05:57 -11 °C -11.4 °C 33992.1 hPa SW 2.6 km/h 23.3 km/h 95 % 38.1 mm
06:02 -11 °C -11.3 °C 33992.1 hPa Calm   23.3 km/h 96 % 38.1 mm
06:12 -11 °C -11.3 °C 34005.6 hPa Calm   23.3 km/h 96 % 33.02 mm
06:17 -11 °C -11.3 °C 34005.6 hPa Calm   12.9 km/h 96 % 33.02 mm
06:22 -11.1 °C -11.5 °C 34015.8 hPa Calm   10.3 km/h 95 % 20.32 mm
06:27 -11.1 °C -11.4 °C 34005.6 hPa SW 2.6 km/h 10.3 km/h 96 % 20.32 mm
06:32 -11.1 °C -11.4 °C 34015.8 hPa Calm   15.6 km/h 96 % 12.7 mm
06:37 -11.2 °C -11.5 °C 34015.8 hPa Calm   15.6 km/h 96 % 12.7 mm
06:42 -11.2 °C -11.5 °C 34015.8 hPa Calm   12.9 km/h 96 % 12.7 mm
06:47 -11.2 °C -11.5 °C 34015.8 hPa Calm   12.9 km/h 96 % 12.7 mm
06:52 -11.2 °C -11.5 °C 34015.8 hPa Calm   10.3 km/h 96 % 12.7 mm
06:57 -11.2 °C -11.5 °C 34015.8 hPa Calm   7.7 km/h 96 % 12.7 mm
07:02 -11.2 °C -11.5 °C 34015.8 hPa West 2.6 km/h 7.7 km/h 96 % 12.7 mm
07:07 -11.2 °C -11.5 °C 34015.8 hPa SSW 2.6 km/h 10.3 km/h 96 % 12.7 mm
07:12 -11.1 °C -11.4 °C 34015.8 hPa Calm   10.3 km/h 96 % 12.7 mm
07:17 -11.1 °C -11.4 °C 34015.8 hPa SW 7.7 km/h 10.3 km/h 96 % 12.7 mm
07:22 -11.1 °C -11.4 °C 34015.8 hPa ESE 2.6 km/h 10.3 km/h 96 % 12.7 mm
07:32 -11 °C -11.3 °C 34015.8 hPa Calm   7.7 km/h 96 % 12.7 mm
07:37 -11 °C -11.3 °C 34015.8 hPa Calm   7.7 km/h 96 % 0 mm
07:42 -10.9 °C -11.3 °C 34015.8 hPa Calm   7.7 km/h 96 % 0 mm
07:47 -10.8 °C -11.2 °C 34015.8 hPa ESE 2.6 km/h 5.1 km/h 96 % 0 mm
07:52 -10.8 °C -11.2 °C 34015.8 hPa Calm   5.1 km/h 96 % 0 mm
07:57 -10.8 °C -11.1 °C 34015.8 hPa ESE 2.6 km/h 10.3 km/h 96 % 0 mm
08:02 -10.7 °C -11.1 °C 34015.8 hPa SW 2.6 km/h 10.3 km/h 96 % 0 mm
08:07 -10.7 °C -11 °C 34015.8 hPa Calm   7.7 km/h 96 % 0 mm
08:12 -10.6 °C -11.1 °C 34015.8 hPa Calm   7.7 km/h 95 % 0 mm
08:17 -10.6 °C -11.1 °C 34015.8 hPa South 2.6 km/h 7.7 km/h 95 % 0 mm
08:22 -10.6 °C -11 °C 34015.8 hPa Calm   7.7 km/h 95 % 0 mm
08:32 -10.4 °C -10.9 °C 34015.8 hPa WSW 5.1 km/h 7.7 km/h 95 % 0 mm
08:37 -10.4 °C -10.9 °C 34015.8 hPa Calm   10.3 km/h 95 % 0 mm
08:42 -10.4 °C -10.8 °C 34015.8 hPa West 2.6 km/h 10.3 km/h 95 % 0 mm
08:47 -10.4 °C -10.9 °C 34029.3 hPa Calm   10.3 km/h 94 % 0 mm
08:52 -10.4 °C -10.9 °C 34029.3 hPa SW 5.1 km/h 10.3 km/h 94 % 0 mm
08:57 -10.4 °C -10.9 °C 34029.3 hPa WSW 2.6 km/h 10.3 km/h 94 % 0 mm
09:02 -10.3 °C -10.8 °C 34029.3 hPa WSW 2.6 km/h 10.3 km/h 94 % 0 mm
09:07 -10.3 °C -10.8 °C 34029.3 hPa Calm   7.7 km/h 94 % 0 mm
09:12 -10.2 °C -10.8 °C 34029.3 hPa Calm   10.3 km/h 93 % 0 mm
09:17 -10.2 °C -10.8 °C 34029.3 hPa Calm   10.3 km/h 93 % 0 mm
09:22 -10.1 °C -10.7 °C 34029.3 hPa WSW 5.1 km/h 10.3 km/h 93 % 0 mm
09:27 -10.1 °C -10.8 °C 34029.3 hPa WSW 7.7 km/h 12.9 km/h 92 % 0 mm
09:32 -10.1 °C -10.8 °C 34029.3 hPa SSW 5.1 km/h 12.9 km/h 92 % 0 mm
10:17 -9.6 °C -10.6 °C 34029.3 hPa NNW 2.6 km/h 18.2 km/h 89 % 0 mm
10:57 -8.7 °C -10.3 °C 34029.3 hPa Calm   15.6 km/h 83 % 0 mm
11:02 -8.8 °C -10.4 °C 34029.3 hPa Calm   12.9 km/h 83 % 0 mm
11:12 -8.9 °C -10.6 °C 34015.8 hPa WSW 2.6 km/h 10.3 km/h 83 % 0 mm
11:17 -9.1 °C -10.7 °C 34015.8 hPa WSW 2.6 km/h 12.9 km/h 83 % 0 mm
11:22 -9.1 °C -10.7 °C 34015.8 hPa WSW 5.1 km/h 12.9 km/h 83 % 0 mm
11:37 -9.2 °C -10.6 °C 34015.8 hPa WNW 7.7 km/h 25.9 km/h 85 % 0 mm
11:42 -9.4 °C -10.8 °C 34015.8 hPa SW 5.1 km/h 15.6 km/h 85 % 0 mm
11:52 -9.6 °C -11 °C 34015.8 hPa WSW 10.3 km/h 23.3 km/h 85 % 0 mm
11:57 -9.7 °C -10.8 °C 34015.8 hPa WSW 7.7 km/h 23.3 km/h 88 % 0 mm
12:02 -9.7 °C -10.8 °C 34015.8 hPa West 12.9 km/h 23.3 km/h 88 % 0 mm
12:12 -9.6 °C -10.7 °C 34015.8 hPa West 7.7 km/h 20.8 km/h 88 % 0 mm
12:17 -9.4 °C -10.6 °C 34015.8 hPa WSW 5.1 km/h 20.8 km/h 87 % 0 mm
12:22 -9.2 °C -10.4 °C 34015.8 hPa WSW 7.7 km/h 18.2 km/h 87 % 0 mm
12:32 -8.8 °C -10.4 °C 34005.6 hPa West 2.6 km/h 23.3 km/h 83 % 0 mm
12:42 -8.2 °C -10.2 °C 34005.6 hPa WSW 2.6 km/h 18.2 km/h 80 % 0 mm
12:52 -8.5 °C -10.4 °C 34005.6 hPa WSW 2.6 km/h 18.2 km/h 80 % 0 mm
12:57 -8.6 °C -10.2 °C 34005.6 hPa WSW 10.3 km/h 18.2 km/h 83 % 0 mm
13:02 -8.6 °C -10.1 °C 33992.1 hPa SW 7.7 km/h 15.6 km/h 84 % 0 mm
13:07 -8.4 °C -10.1 °C 34005.6 hPa WSW 5.1 km/h 15.6 km/h 83 % 0 mm
13:12 -8.4 °C -10.1 °C 34005.6 hPa Calm   15.6 km/h 83 % 0 mm
13:17 -8.4 °C -10.1 °C 34005.6 hPa Calm   18.2 km/h 83 % 0 mm
13:22 -8.4 °C -10.4 °C 33992.1 hPa WNW 5.1 km/h 18.2 km/h 80 % 0 mm
13:27 -8.4 °C -10.1 °C 33992.1 hPa Calm   20.8 km/h 83 % 0 mm
13:32 -8 °C -9.8 °C 33992.1 hPa WSW 5.1 km/h 20.8 km/h 81 % 0 mm
13:37 -7.8 °C -9.8 °C 33992.1 hPa West 5.1 km/h 20.8 km/h 79 % 0 mm
13:42 -7.7 °C -9.9 °C 33992.1 hPa WSW 7.7 km/h 15.6 km/h 78 % 0 mm
13:52 -7.6 °C -9.8 °C 33992.1 hPa WSW 7.7 km/h 20.8 km/h 77 % 0 mm
14:02 -7.2 °C -10.1 °C 33992.1 hPa WSW 7.7 km/h 20.8 km/h 72 % 0 mm
14:12 -7.3 °C -10.2 °C 33981.9 hPa WSW 15.6 km/h 25.9 km/h 72 % 0 mm
14:17 -7.2 °C -10.2 °C 33981.9 hPa West 2.6 km/h 25.9 km/h 71 % 0 mm
14:22 -7.4 °C -10.4 °C 33981.9 hPa West 7.7 km/h 25.9 km/h 71 % 0 mm
14:32 -7.6 °C -10.7 °C 33971.7 hPa West 5.1 km/h 23.3 km/h 70 % 0 mm
14:37 -7.6 °C -10.6 °C 33971.7 hPa SW 5.1 km/h 18.2 km/h 71 % 0 mm
14:42 -7.7 °C -10.6 °C 33971.7 hPa West 10.3 km/h 20.8 km/h 72 % 0 mm
14:47 -7.6 °C -9.9 °C 33971.7 hPa West 12.9 km/h 20.8 km/h 76 % 0 mm
14:52 -7.6 °C -10.7 °C 33958.2 hPa Calm   20.8 km/h 70 % 0 mm
15:02 -7.7 °C -10.3 °C 33971.7 hPa SW 2.6 km/h 20.8 km/h 74 % 0 mm
15:07 -7.8 °C -10.6 °C 33971.7 hPa WSW 5.1 km/h 20.8 km/h 73 % 0 mm
15:12 -7.9 °C -10.6 °C 33971.7 hPa SW 5.1 km/h 23.3 km/h 73 % 0 mm
15:17 -7.9 °C -10.6 °C 33958.2 hPa SW 7.7 km/h 23.3 km/h 73 % 0 mm
15:22 -7.8 °C -10.7 °C 33958.2 hPa West 15.6 km/h 23.3 km/h 72 % 0 mm
15:32 -7.7 °C -10.8 °C 33958.2 hPa SW 5.1 km/h 20.8 km/h 70 % 0 mm
15:47 -7.8 °C -9.9 °C 33958.2 hPa WSW 7.7 km/h 23.3 km/h 78 % 0 mm
15:52 -7.8 °C -10.2 °C 33958.2 hPa West 12.9 km/h 23.3 km/h 76 % 0 mm
15:57 -7.8 °C -10 °C 33958.2 hPa SW 10.3 km/h 23.3 km/h 78 % 0 mm
16:02 -7.9 °C -10.3 °C 33958.2 hPa SW 12.9 km/h 23.3 km/h 76 % 0 mm
16:12 -7.6 °C -9.9 °C 33948 hPa WSW 15.6 km/h 23.3 km/h 76 % 0 mm
16:17 -7.4 °C -9.9 °C 33948 hPa West 7.7 km/h 20.8 km/h 75 % 0 mm
16:32 -8.2 °C -10.3 °C 33948 hPa WSW 7.7 km/h 23.3 km/h 78 % 0 mm
16:42 -8.1 °C -10.2 °C 33937.9 hPa Calm   20.8 km/h 79 % 0 mm
16:52 -7.9 °C -10.1 °C 33937.9 hPa SSW 5.1 km/h 15.6 km/h 78 % 0 mm
16:57 -7.9 °C -10.3 °C 33937.9 hPa WSW 7.7 km/h 15.6 km/h 76 % 0 mm
17:02 -7.9 °C -10.5 °C 33937.9 hPa WSW 2.6 km/h 15.6 km/h 74 % 0 mm
17:07 -7.9 °C -10.6 °C 33937.9 hPa WSW 10.3 km/h 15.6 km/h 73 % 0 mm
17:12 -7.9 °C -10.7 °C 33937.9 hPa WSW 12.9 km/h 23.3 km/h 73 % 0 mm
17:17 -8.1 °C -10.8 °C 33937.9 hPa WSW 5.1 km/h 23.3 km/h 73 % 0 mm
17:22 -8.1 °C -10.6 °C 33937.9 hPa Calm   23.3 km/h 75 % 0 mm
17:37 -8.1 °C -10.6 °C 33924.3 hPa WSW 7.7 km/h 12.9 km/h 75 % 0 mm
17:42 -8 °C -10.4 °C 33924.3 hPa Calm   12.9 km/h 76 % 0 mm
17:47 -7.9 °C -10.3 °C 33924.3 hPa WSW 5.1 km/h 12.9 km/h 76 % 0 mm
17:52 -8 °C -10.8 °C 33924.3 hPa West 5.1 km/h 20.8 km/h 72 % 0 mm
17:57 -7.8 °C -10.6 °C 33924.3 hPa West 2.6 km/h 20.8 km/h 73 % 0 mm
18:02 -7.3 °C -9.9 °C 33924.3 hPa WSW 5.1 km/h 20.8 km/h 74 % 0 mm
18:12 -7.1 °C -10.8 °C 33914.2 hPa SW 7.7 km/h 15.6 km/h 65 % 0 mm
18:17 -7.4 °C -11 °C 33914.2 hPa WSW 7.7 km/h 15.6 km/h 66 % 0 mm
18:22 -7.8 °C -11.2 °C 33914.2 hPa WSW 5.1 km/h 20.8 km/h 68 % 0 mm
18:27 -8.1 °C -10.9 °C 33924.3 hPa WSW 7.7 km/h 23.3 km/h 72 % 0 mm
18:32 -8.2 °C -10.8 °C 33914.2 hPa SW 7.7 km/h 23.3 km/h 74 % 0 mm
18:42 -8.3 °C -10.9 °C 33914.2 hPa WSW 10.3 km/h 15.6 km/h 74 % 0 mm
18:47 -8.3 °C -10.7 °C 33914.2 hPa Calm   20.8 km/h 76 % 0 mm
18:52 -8.4 °C -10.7 °C 33914.2 hPa SW 5.1 km/h 20.8 km/h 77 % 0 mm
19:02 -8.6 °C -10.9 °C 33914.2 hPa SW 7.7 km/h 23.3 km/h 76 % 0 mm
19:07 -8.7 °C -10.9 °C 33914.2 hPa WSW 2.6 km/h 23.3 km/h 77 % 0 mm
19:12 -8.9 °C -10.7 °C 33914.2 hPa WSW 7.7 km/h 23.3 km/h 81 % 0 mm
19:22 -9.3 °C -10.6 °C 33924.3 hPa West 15.6 km/h 18.2 km/h 86 % 12.7 mm
19:27 -9.6 °C -10.9 °C 33924.3 hPa West 7.7 km/h 20.8 km/h 86 % 12.7 mm
19:32 -9.8 °C -10.9 °C 33924.3 hPa SW 2.6 km/h 20.8 km/h 87 % 12.7 mm
19:37 -9.8 °C -10.9 °C 33924.3 hPa SW 10.3 km/h 20.8 km/h 88 % 12.7 mm
19:42 -9.8 °C -10.7 °C 33924.3 hPa WSW 5.1 km/h 15.6 km/h 90 % 12.7 mm
19:47 -9.6 °C -10.4 °C 33914.2 hPa WSW 2.6 km/h 15.6 km/h 91 % 12.7 mm
19:52 -9.6 °C -10.6 °C 33914.2 hPa WSW 2.6 km/h 15.6 km/h 89 % 12.7 mm
19:57 -9.6 °C -10.7 °C 33914.2 hPa WSW 5.1 km/h 15.6 km/h 88 % 12.7 mm
20:02 -9.7 °C -10.8 °C 33914.2 hPa WSW 12.9 km/h 15.6 km/h 88 % 12.7 mm
20:12 -9.9 °C -11 °C 33914.2 hPa WSW 5.1 km/h 15.6 km/h 88 % 12.7 mm
20:17 -9.9 °C -11 °C 33914.2 hPa West 5.1 km/h 15.6 km/h 88 % 0 mm
20:22 -9.9 °C -10.9 °C 33914.2 hPa WSW 2.6 km/h 15.6 km/h 89 % 0 mm
20:32 -10.1 °C -11.1 °C 33924.3 hPa WSW 5.1 km/h 15.6 km/h 89 % 0 mm
20:37 -10.1 °C -11 °C 33924.3 hPa SW 2.6 km/h 15.6 km/h 90 % 0 mm
20:42 -10.1 °C -10.9 °C 33924.3 hPa Calm   12.9 km/h 91 % 0 mm
20:47 -10.1 °C -10.9 °C 33924.3 hPa Calm   12.9 km/h 91 % 0 mm
20:52 -10.2 °C -10.9 °C 33924.3 hPa SW 2.6 km/h 12.9 km/h 92 % 0 mm
20:57 -10.2 °C -10.9 °C 33937.9 hPa WSW 2.6 km/h 10.3 km/h 92 % 0 mm
21:02 -10.2 °C -10.9 °C 33937.9 hPa SW 2.6 km/h 10.3 km/h 92 % 7.62 mm
21:12 -10.2 °C -10.8 °C 33937.9 hPa WSW 2.6 km/h 12.9 km/h 93 % 12.7 mm
21:17 -10.3 °C -10.9 °C 33924.3 hPa WSW 7.7 km/h 12.9 km/h 93 % 12.7 mm
21:22 -10.4 °C -11.1 °C 33924.3 hPa WSW 2.6 km/h 15.6 km/h 92 % 25.4 mm
21:27 -10.5 °C -11.2 °C 33924.3 hPa WSW 2.6 km/h 15.6 km/h 92 % 25.4 mm
21:32 -10.5 °C -11.1 °C 33924.3 hPa Calm   10.3 km/h 93 % 25.4 mm
21:37 -10.5 °C -11.1 °C 33924.3 hPa Calm   7.7 km/h 93 % 25.4 mm
21:42 -10.6 °C -11.2 °C 33924.3 hPa Calm   7.7 km/h 93 % 25.4 mm
21:47 -10.7 °C -11.3 °C 33924.3 hPa Calm   7.7 km/h 93 % 25.4 mm
21:52 -10.8 °C -11.3 °C 33924.3 hPa Calm   7.7 km/h 94 % 25.4 mm
21:57 -10.8 °C -11.3 °C 33924.3 hPa Calm   2.6 km/h 94 % 20.32 mm
22:02 -10.9 °C -11.4 °C 33924.3 hPa Calm   2.6 km/h 94 % 20.32 mm
22:12 -11.1 °C -11.6 °C 33924.3 hPa Calm   2.6 km/h 94 % 12.7 mm
22:22 -11.2 °C -11.7 °C 33924.3 hPa Calm   2.6 km/h 94 % 0 mm
22:32 -11.3 °C -11.8 °C 33924.3 hPa Calm   2.6 km/h 95 % 0 mm
22:37 -11.3 °C -11.8 °C 33914.2 hPa Calm   2.6 km/h 95 % 0 mm
22:42 -11.4 °C -11.8 °C 33914.2 hPa Calm   2.6 km/h 95 % 0 mm
22:47 -11.4 °C -11.8 °C 33914.2 hPa Calm   2.6 km/h 95 % 0 mm
22:52 -11.4 °C -11.9 °C 33914.2 hPa Calm     95 % 0 mm
23:02 -11.4 °C -11.8 °C 33914.2 hPa Calm     95 % 0 mm
23:12 -11.3 °C -11.7 °C 33914.2 hPa Calm     96 % 0 mm
23:17 -11.3 °C -11.6 °C 33914.2 hPa Calm     96 % 0 mm
23:22 -11.3 °C -11.6 °C 33914.2 hPa Calm     96 % 0 mm
23:32 -11.2 °C -11.5 °C 33914.2 hPa Calm     96 % 0 mm
23:42 -11.1 °C -11.4 °C 33900.6 hPa Calm     96 % 7.62 mm
23:52 -11 °C -11.3 °C 33900.6 hPa Calm     97 % 7.62 mm
23:57 -10.9 °C -11.2 °C 33914.2 hPa Calm     97 % 7.62 mm
Meteo18
Compliments of Weather Underground - 4 mb

Script developed by  Jim McMurry - jmcmurry@mwt.net Adapted for the template by  Wim van der Kuil - Leuven-Template.eu

You find our weather info also at:

European Weather Network

Weather Underground

Equipment we use:

Weather-station
Davis Vue

Weather-program
Meteobridge

Weather-server
Raspberry PI 2 B+

Provider
1 and 1

Davis Vue

Meteobridge

Raspberry PI 2 B+

1 and 1